Time;durP1;ratioP1;P1;durP2;ratioP2;P2;SDS_P1;SDS_P2;PMS_P1;PMS_P2;Temp;Humidity;BMP_temperature;BMP_pressure;BME280_temperature;BME280_humidity;BME280_pressure;Samples;Min_cycle;Max_cycle;Signal;HPM_P1;HPM_P2
2022/11/08 00:02:26;;;;;;;32.10;17.70;;;;;;;10.34;100.00;100264.31;633082;1306;139709;-81
2022/11/08 00:17:30;;;;;;;34.20;18.20;;;;;;;10.47;100.00;100275.05;632675;1306;140682;-81
2022/11/08 00:32:33;;;;;;;29.90;17.80;;;;;;;10.57;100.00;100279.86;635201;1313;139031;-80
2022/11/08 00:47:37;;;;;;;42.20;24.60;;;;;;;10.63;100.00;100283.86;633580;1305;140218;-82
2022/11/08 01:02:40;;;;;;;33.70;19.40;;;;;;;10.66;100.00;100286.00;632598;1308;139663;-82
2022/11/08 01:17:43;;;;;;;32.30;19.50;;;;;;;10.50;100.00;100283.59;632546;1306;140751;-81
2022/11/08 01:32:47;;;;;;;30.30;17.40;;;;;;;10.33;100.00;100277.02;632961;1305;140970;-81
2022/11/08 01:47:50;;;;;;;35.20;19.10;;;;;;;10.28;100.00;100275.15;632005;1305;140188;-81
2022/11/08 02:03:00;;;;;;;38.90;21.00;;;;;;;10.28;100.00;100271.28;631974;1311;138910;-82
2022/11/08 02:18:03;;;;;;;33.80;20.00;;;;;;;10.27;100.00;100266.84;631775;1304;139787;-82
2022/11/08 02:33:21;;;;;;;30.30;17.90;;;;;;;10.38;100.00;100266.44;632376;1300;141155;-83
2022/11/08 02:48:25;;;;;;;38.60;20.10;;;;;;;10.36;100.00;100256.30;633076;1308;140521;-82
2022/11/08 03:03:28;;;;;;;38.30;19.70;;;;;;;10.37;100.00;100251.80;633193;1305;139881;-82
2022/11/08 03:18:31;;;;;;;33.90;20.10;;;;;;;10.45;100.00;100253.22;632656;1314;140565;-82
2022/11/08 03:33:35;;;;;;;43.10;20.60;;;;;;;10.53;100.00;100265.16;635033;1311;140767;-82
2022/11/08 03:48:38;;;;;;;31.20;18.40;;;;;;;10.56;100.00;100253.18;635980;1314;139008;-82
2022/11/08 04:03:41;;;;;;;30.90;18.70;;;;;;;10.57;100.00;100257.58;635187;1297;140125;-82
2022/11/08 04:34:07;;;;;;;41.00;25.10;;;;;;;10.62;100.00;100267.66;635310;1318;139830;-80
2022/11/08 04:49:10;;;;;;;32.80;19.10;;;;;;;10.56;100.00;100271.54;634839;1305;140484;-81
2022/11/08 05:04:13;;;;;;;36.50;20.20;;;;;;;10.50;100.00;100275.02;634535;1302;140222;-81
2022/11/08 05:23:22;;;;;;;36.40;19.50;;;;;;;10.53;100.00;100274.73;634719;1311;140889;-81
2022/11/08 05:34:40;;;;;;;33.40;18.30;;;;;;;10.66;100.00;100281.80;634676;1305;140643;-81
2022/11/08 05:49:43;;;;;;;31.10;17.60;;;;;;;10.74;100.00;100289.48;635596;1305;140673;-80
2022/11/08 06:04:47;;;;;;;40.30;18.80;;;;;;;10.82;100.00;100298.73;635321;1304;141017;-81
2022/11/08 06:19:51;;;;;;;28.60;16.20;;;;;;;10.87;100.00;100317.41;635157;1297;139554;-82
2022/11/08 06:34:55;;;;;;;28.60;15.60;;;;;;;10.95;100.00;100326.48;634949;1311;140361;-82
2022/11/08 06:49:58;;;;;;;36.80;16.10;;;;;;;11.07;100.00;100335.27;635146;1303;140547;-82
2022/11/08 07:05:01;;;;;;;28.40;15.10;;;;;;;11.14;100.00;100339.49;634482;1304;139908;-82
2022/11/08 07:20:05;;;;;;;27.60;15.30;;;;;;;11.24;100.00;100335.49;635035;1318;140421;-82
2022/11/08 07:35:09;;;;;;;25.40;15.90;;;;;;;11.38;100.00;100330.55;634766;1305;139803;-81
2022/11/08 07:50:12;;;;;;;29.10;16.50;;;;;;;11.67;100.00;100343.69;635106;1303;141333;-82
2022/11/08 08:05:20;;;;;;;22.20;13.70;;;;;;;11.75;100.00;100342.06;636055;1297;143209;-81
2022/11/08 08:20:23;;;;;;;25.00;14.20;;;;;;;12.24;100.00;100335.33;640434;1295;141136;-83
2022/11/08 08:35:26;;;;;;;23.10;12.50;;;;;;;13.02;100.00;100333.70;646817;1318;142139;-82
2022/11/08 08:50:31;;;;;;;22.70;12.10;;;;;;;13.11;100.00;100334.82;636854;1304;140929;-83
2022/11/08 09:05:36;;;;;;;22.20;11.40;;;;;;;13.11;100.00;100335.56;635829;1297;141008;-83
2022/11/08 09:20:42;;;;;;;19.20;11.40;;;;;;;13.93;100.00;100347.84;635537;1296;141297;-82
2022/11/08 09:35:47;;;;;;;20.80;10.50;;;;;;;14.76;99.55;100353.53;636712;1302;140680;-81
2022/11/08 09:50:53;;;;;;;16.40;9.50;;;;;;;15.22;97.01;100355.55;637335;1316;139003;-82
2022/11/08 10:06:35;;;;;;;16.10;9.50;;;;;;;16.03;94.93;100355.69;636754;1305;138927;-80
2022/11/08 10:21:52;;;;;;;19.40;9.60;;;;;;;16.51;91.10;100342.33;634952;1303;139408;-81
2022/11/08 10:37:07;;;;;;;10.10;6.90;;;;;;;16.93;88.09;100329.09;636194;1298;140343;-80
2022/11/08 10:52:11;;;;;;;13.70;7.70;;;;;;;17.58;84.87;100319.31;635734;1311;139206;-80
2022/11/08 11:23:03;;;;;;;10.10;5.90;;;;;;;18.07;81.39;100305.74;638777;1304;139304;-80
2022/11/08 11:38:20;;;;;;;9.60;5.40;;;;;;;17.98;79.40;100297.42;636450;1311;140121;-81
2022/11/08 11:53:31;;;;;;;13.20;6.30;;;;;;;18.42;78.08;100300.84;634951;1305;141294;-81
2022/11/08 12:08:53;;;;;;;15.30;6.70;;;;;;;18.39;77.00;100286.91;634881;1313;138955;-81
2022/11/08 12:24:18;;;;;;;10.20;5.60;;;;;;;18.98;75.93;100278.16;634745;1306;139424;-81
2022/11/08 12:39:22;;;;;;;13.10;6.00;;;;;;;19.43;73.95;100274.70;635625;1313;140381;-83
2022/11/08 12:54:38;;;;;;;10.20;5.50;;;;;;;19.72;72.77;100270.73;636790;1295;139472;-81
2022/11/08 13:09:54;;;;;;;13.00;6.10;;;;;;;22.60;65.49;100282.98;636527;1295;140095;-81
2022/11/08 13:25:34;;;;;;;8.80;5.10;;;;;;;24.88;58.47;100288.23;636502;1296;138304;-82
2022/11/08 13:41:08;;;;;;;9.50;5.00;;;;;;;24.17;58.04;100283.92;635409;1305;138676;-81
2022/11/08 13:56:12;;;;;;;11.60;5.50;;;;;;;23.98;58.67;100271.79;635224;1302;139320;-81
2022/11/08 14:11:28;;;;;;;10.60;6.20;;;;;;;20.69;63.55;100258.81;634711;1297;139419;-81
2022/11/08 14:26:32;;;;;;;11.90;6.50;;;;;;;18.40;69.90;100254.74;635225;1304;138585;-81
2022/11/08 14:41:38;;;;;;;13.00;7.30;;;;;;;17.13;75.63;100257.00;636455;1305;141804;-82
2022/11/08 14:56:43;;;;;;;23.00;10.70;;;;;;;16.73;78.36;100257.55;635140;1298;138900;-81
2022/11/08 15:11:52;;;;;;;34.90;22.00;;;;;;;15.75;81.60;100252.23;634520;1301;140112;-82
2022/11/08 15:27:09;;;;;;;22.90;17.00;;;;;;;15.14;85.33;100250.15;634426;1305;140356;-81
2022/11/08 15:42:15;;;;;;;30.00;19.70;;;;;;;14.75;87.29;100237.10;634501;1303;140563;-82
2022/11/08 15:57:19;;;;;;;49.50;27.40;;;;;;;14.30;89.90;100236.13;634450;1310;140706;-82
2022/11/08 16:12:22;;;;;;;32.40;21.00;;;;;;;14.00;91.60;100239.59;634389;1303;139042;-82
2022/11/08 16:27:26;;;;;;;30.00;19.40;;;;;;;13.75;93.06;100246.92;633987;1304;140679;-81
2022/11/08 16:42:29;;;;;;;41.80;31.80;;;;;;;13.49;94.49;100263.74;633999;1319;140049;-81
2022/11/08 16:57:33;;;;;;;28.80;17.00;;;;;;;13.28;95.90;100263.69;634456;1297;140714;-82
2022/11/08 17:12:38;;;;;;;33.80;19.50;;;;;;;13.04;97.66;100266.18;635408;1304;140433;-82
2022/11/08 17:27:42;;;;;;;211.00;90.70;;;;;;;12.88;99.29;100265.15;635821;1317;139142;-81
2022/11/08 17:42:45;;;;;;;31.60;16.90;;;;;;;12.67;100.00;100256.69;638764;1290;139940;-83
2022/11/08 17:57:49;;;;;;;33.90;21.30;;;;;;;12.60;100.00;100253.99;642878;1304;141573;-83
2022/11/08 18:12:54;;;;;;;40.80;22.70;;;;;;;12.47;100.00;100259.61;639972;1319;140271;-82
2022/11/08 18:27:59;;;;;;;31.50;17.60;;;;;;;12.39;100.00;100261.27;638502;1310;139666;-82
2022/11/08 18:43:02;;;;;;;27.80;15.90;;;;;;;12.31;100.00;100256.45;636641;1305;140712;-79
2022/11/08 18:58:05;;;;;;;29.90;17.70;;;;;;;12.19;100.00;100247.93;635542;1303;139392;-81
2022/11/08 19:13:10;;;;;;;98.90;51.30;;;;;;;12.06;100.00;100243.70;635681;1296;139793;-80
2022/11/08 19:28:15;;;;;;;37.40;25.50;;;;;;;12.00;100.00;100250.73;636771;1303;139755;-80
2022/11/08 19:43:18;;;;;;;27.90;16.70;;;;;;;11.93;100.00;100249.27;636005;1305;139545;-81
2022/11/08 19:58:24;;;;;;;27.50;17.40;;;;;;;11.83;100.00;100257.94;635845;1298;139561;-82
2022/11/08 20:13:29;;;;;;;27.20;17.20;;;;;;;11.79;100.00;100249.02;636190;1303;176312;-80
2022/11/08 20:28:33;;;;;;;28.90;16.40;;;;;;;11.75;100.00;100237.30;636252;1311;140468;-80
2022/11/08 20:43:46;;;;;;;30.70;16.90;;;;;;;11.71;100.00;100235.41;634907;1297;140209;-81
2022/11/08 20:58:51;;;;;;;26.00;14.70;;;;;;;11.75;100.00;100238.29;643769;1298;139972;-82
2022/11/08 21:13:55;;;;;;;27.20;16.00;;;;;;;11.74;100.00;100239.71;641367;1304;139506;-80
2022/11/08 21:28:58;;;;;;;23.90;13.60;;;;;;;11.71;100.00;100236.59;635610;1311;140611;-80
2022/11/08 21:44:02;;;;;;;22.10;13.00;;;;;;;11.65;100.00;100230.00;635960;1297;140329;-81
2022/11/08 21:59:05;;;;;;;20.40;12.90;;;;;;;11.57;100.00;100221.83;634115;1305;140380;-80
2022/11/08 22:14:09;;;;;;;26.20;15.00;;;;;;;11.55;100.00;100224.84;633491;1319;140762;-82
2022/11/08 22:29:13;;;;;;;29.40;15.00;;;;;;;11.52;100.00;100212.98;634789;1311;140254;-80
2022/11/08 22:44:17;;;;;;;29.40;14.60;;;;;;;11.47;100.00;100194.38;634244;1305;139397;-81
2022/11/08 22:59:20;;;;;;;25.40;14.70;;;;;;;11.42;100.00;100188.22;634389;1304;141422;-81
2022/11/08 23:45:08;;;;;;;27.40;14.90;;;;;;;11.29;100.00;100165.16;634391;1311;140219;-82
